Indian Neck, Virginia
Current Conditions -  °F | °C
As of 3:55 PM on Tuesday 21 Oct 2014 (Local Time) from KXSA Reporting Station
Scattered Clouds Scattered Clouds  
Wind Chill: 73°   Ceiling: Unl
Heat Index: 73°   Visibility: 10mi
Dew Point: 40°   Wind: 5mph
Humidity: 30%   Direction: 190°S
Pressure: 29.81"   Gusts: NA
Location:  37.8769°N, 77.0499°W
Report Text: KXSA 211955Z AUTO 19004KT 10SM SCT085 SCT110 23/04 A2981 RMK AO2 T02280044
Loading
Personal Weather Stations






























Interactive Weather Map
Tropical Storm Tracking
New forecast layout! Learn more

10-Day Weather Forecast

Advertisements
Track Severe Weather on mobile